Time;durP1;ratioP1;P1;durP2;ratioP2;P2;SDS_P1;SDS_P2;PMS_P1;PMS_P2;Temp;Humidity;BMP_temperature;BMP_pressure;BME280_temperature;BME280_humidity;BME280_pressure;Samples;Min_cycle;Max_cycle;Signal;HPM_P1;HPM_P2
2024/01/27 00:00:09;;;;;;;31.73;5.60;;;;;;;;;;4992774;28;93737;-66
2024/01/27 00:02:35;;;;;;;27.13;5.72;;;;;;;;;;4999969;28;92883;-66
2024/01/27 00:05:02;;;;;;;27.55;5.90;;;;;;;;;;5000014;28;94747;-66
2024/01/27 00:07:29;;;;;;;25.77;5.45;;;;;;;;;;5000743;28;93394;-66
2024/01/27 00:09:55;;;;;;;30.70;5.22;;;;;;;;;;5001773;28;92508;-66
2024/01/27 00:12:21;;;;;;;17.63;4.88;;;;;;;;;;4995687;28;93691;-66
2024/01/27 00:14:48;;;;;;;30.02;5.25;;;;;;;;;;5000835;28;92644;-66
2024/01/27 00:17:15;;;;;;;31.95;4.95;;;;;;;;;;4996733;28;93486;-66
2024/01/27 00:19:41;;;;;;;26.25;5.03;;;;;;;;;;5003955;28;93726;-66
2024/01/27 00:22:08;;;;;;;25.95;5.65;;;;;;;;;;4997872;28;91720;-66
2024/01/27 00:24:34;;;;;;;18.98;4.38;;;;;;;;;;5001234;28;95578;-66
2024/01/27 00:27:01;;;;;;;33.30;4.78;;;;;;;;;;4997195;28;93795;-66
2024/01/27 00:29:28;;;;;;;19.15;3.85;;;;;;;;;;4997942;28;94848;-66
2024/01/27 00:31:55;;;;;;;22.13;4.50;;;;;;;;;;5005957;28;95815;-66
2024/01/27 00:34:22;;;;;;;28.92;4.55;;;;;;;;;;5001831;28;92520;-66
2024/01/27 00:36:49;;;;;;;34.22;5.20;;;;;;;;;;4999706;28;93447;-66
2024/01/27 00:39:16;;;;;;;20.30;4.13;;;;;;;;;;4996901;28;93356;-67
2024/01/27 00:41:43;;;;;;;33.13;5.43;;;;;;;;;;4999100;28;92441;-66
2024/01/27 00:44:09;;;;;;;24.83;4.72;;;;;;;;;;4997959;28;93510;-66
2024/01/27 00:46:38;;;;;;;27.33;4.97;;;;;;;;;;4999262;28;92801;-66
2024/01/27 00:49:05;;;;;;;20.45;3.40;;;;;;;;;;5002701;28;92530;-66
2024/01/27 00:51:32;;;;;;;37.28;5.05;;;;;;;;;;5000281;28;94273;-66
2024/01/27 00:53:59;;;;;;;16.30;4.10;;;;;;;;;;5001651;28;96322;-66
2024/01/27 00:56:25;;;;;;;23.48;3.88;;;;;;;;;;5002906;28;96461;-66
2024/01/27 00:58:51;;;;;;;28.95;5.05;;;;;;;;;;4999693;28;93831;-66
2024/01/27 01:01:18;;;;;;;38.65;5.55;;;;;;;;;;4999883;28;92563;-66
2024/01/27 01:03:45;;;;;;;29.45;3.97;;;;;;;;;;4999519;28;92486;-66
2024/01/27 01:06:12;;;;;;;20.20;3.58;;;;;;;;;;5001331;28;93521;-66
2024/01/27 01:08:38;;;;;;;36.60;5.05;;;;;;;;;;5000516;28;92487;-66
2024/01/27 01:11:05;;;;;;;22.65;3.90;;;;;;;;;;5009154;28;96573;-66
2024/01/27 01:13:31;;;;;;;22.65;3.40;;;;;;;;;;5007180;28;93429;-66
2024/01/27 01:15:57;;;;;;;27.98;5.65;;;;;;;;;;5008489;28;92556;-66
2024/01/27 01:18:24;;;;;;;23.02;4.07;;;;;;;;;;5003835;28;95774;-66
2024/01/27 01:20:50;;;;;;;16.17;3.92;;;;;;;;;;5000303;28;92925;-66
2024/01/27 01:23:16;;;;;;;27.13;4.18;;;;;;;;;;5003006;28;93112;-66
2024/01/27 01:25:44;;;;;;;23.52;4.05;;;;;;;;;;5007047;28;93492;-66
2024/01/27 01:28:10;;;;;;;23.92;5.15;;;;;;;;;;5000082;28;92547;-66
2024/01/27 01:30:37;;;;;;;27.05;4.63;;;;;;;;;;5000831;28;93523;-66
2024/01/27 01:33:03;;;;;;;20.38;3.65;;;;;;;;;;5003693;28;93791;-66
2024/01/27 01:35:30;;;;;;;19.52;3.97;;;;;;;;;;5006592;28;91848;-66
2024/01/27 01:37:56;;;;;;;21.98;3.20;;;;;;;;;;5007366;28;93020;-66
2024/01/27 01:40:22;;;;;;;28.90;4.20;;;;;;;;;;5002815;28;92595;-67
2024/01/27 01:42:52;;;;;;;22.05;4.18;;;;;;;;;;4998104;28;94964;-66
2024/01/27 01:45:18;;;;;;;22.92;4.10;;;;;;;;;;5003198;28;92700;-66
2024/01/27 01:47:45;;;;;;;22.08;3.88;;;;;;;;;;5004634;28;92533;-66
2024/01/27 01:50:11;;;;;;;32.90;4.95;;;;;;;;;;4991771;28;93143;-66
2024/01/27 01:52:38;;;;;;;31.92;4.10;;;;;;;;;;5002498;28;93465;-66
2024/01/27 01:55:05;;;;;;;30.13;3.90;;;;;;;;;;5003509;28;92589;-67
2024/01/27 01:57:33;;;;;;;18.00;3.28;;;;;;;;;;5009161;28;93530;-66
2024/01/27 01:59:59;;;;;;;17.48;3.55;;;;;;;;;;5004802;28;91680;-66
2024/01/27 02:02:25;;;;;;;14.40;3.47;;;;;;;;;;5005738;28;93563;-66
2024/01/27 02:04:52;;;;;;;24.25;3.97;;;;;;;;;;4999877;28;93436;-66
2024/01/27 02:07:18;;;;;;;19.08;3.58;;;;;;;;;;5002054;28;94867;-66
2024/01/27 02:09:45;;;;;;;30.30;3.83;;;;;;;;;;4999619;28;95849;-66
2024/01/27 02:12:11;;;;;;;16.15;3.30;;;;;;;;;;5002990;28;93698;-66
2024/01/27 02:14:37;;;;;;;21.48;3.35;;;;;;;;;;4998188;28;92524;-66
2024/01/27 02:17:04;;;;;;;25.85;3.53;;;;;;;;;;5003372;28;93052;-66
2024/01/27 02:19:30;;;;;;;22.58;4.00;;;;;;;;;;5008035;28;92479;-66
2024/01/27 02:21:57;;;;;;;20.85;3.95;;;;;;;;;;5002809;28;93368;-66
2024/01/27 02:24:24;;;;;;;27.02;3.97;;;;;;;;;;5003936;28;94863;-66
2024/01/27 02:26:50;;;;;;;23.33;4.20;;;;;;;;;;5003284;28;92585;-66
2024/01/27 02:29:16;;;;;;;37.17;4.57;;;;;;;;;;5001077;28;94359;-66
2024/01/27 02:31:43;;;;;;;29.15;3.28;;;;;;;;;;5002761;28;96064;-66
2024/01/27 02:34:09;;;;;;;28.38;4.32;;;;;;;;;;5003188;28;92441;-67
2024/01/27 02:36:36;;;;;;;33.38;3.58;;;;;;;;;;5004241;28;93189;-66
2024/01/27 02:39:02;;;;;;;20.20;3.42;;;;;;;;;;5003088;28;93703;-66
2024/01/27 02:41:29;;;;;;;19.55;3.45;;;;;;;;;;5009439;28;92491;-66
2024/01/27 02:43:55;;;;;;;32.38;3.50;;;;;;;;;;4998398;28;93412;-66
2024/01/27 02:46:21;;;;;;;27.15;3.63;;;;;;;;;;5002687;28;92841;-66
2024/01/27 02:48:48;;;;;;;16.98;3.95;;;;;;;;;;5002550;28;93312;-66
2024/01/27 02:51:18;;;;;;;22.85;3.88;;;;;;;;;;5000635;28;93438;-66
2024/01/27 02:53:45;;;;;;;22.52;4.05;;;;;;;;;;4996150;28;93004;-67
2024/01/27 02:56:11;;;;;;;25.45;3.95;;;;;;;;;;5000900;28;94981;-66
2024/01/27 02:58:37;;;;;;;25.25;3.83;;;;;;;;;;5001266;28;93888;-66
2024/01/27 03:01:04;;;;;;;24.48;4.00;;;;;;;;;;4994012;28;92516;-66
2024/01/27 03:03:31;;;;;;;22.45;4.55;;;;;;;;;;5001649;28;93651;-66
2024/01/27 03:05:57;;;;;;;28.23;4.20;;;;;;;;;;5033827;27;92532;-66
2024/01/27 03:08:24;;;;;;;32.38;4.50;;;;;;;;;;4997371;28;93566;-66
2024/01/27 03:10:50;;;;;;;33.13;4.75;;;;;;;;;;4993673;28;92717;-66
2024/01/27 03:13:18;;;;;;;21.85;3.75;;;;;;;;;;4997541;28;91967;-66
2024/01/27 03:15:45;;;;;;;32.42;4.20;;;;;;;;;;5005816;28;92531;-66
2024/01/27 03:18:11;;;;;;;22.33;4.28;;;;;;;;;;5004323;28;93651;-66
2024/01/27 03:20:38;;;;;;;24.83;4.80;;;;;;;;;;4999855;28;94914;-66
2024/01/27 03:23:04;;;;;;;21.25;4.32;;;;;;;;;;5005632;28;95544;-66
2024/01/27 03:25:31;;;;;;;18.25;4.57;;;;;;;;;;5005019;28;93197;-67
2024/01/27 03:27:57;;;;;;;18.70;4.47;;;;;;;;;;4999909;28;94302;-66
2024/01/27 03:30:23;;;;;;;24.45;4.00;;;;;;;;;;4999278;28;93587;-66
2024/01/27 03:32:50;;;;;;;31.42;4.75;;;;;;;;;;5001049;28;92587;-66
2024/01/27 03:35:16;;;;;;;27.88;4.82;;;;;;;;;;4996041;28;95063;-66
2024/01/27 03:37:44;;;;;;;21.00;4.07;;;;;;;;;;4999223;28;92962;-66
2024/01/27 03:40:11;;;;;;;23.77;4.50;;;;;;;;;;5002258;28;92628;-66
2024/01/27 03:42:37;;;;;;;23.85;5.22;;;;;;;;;;5004723;28;93411;-66
2024/01/27 03:45:04;;;;;;;25.98;5.05;;;;;;;;;;4996552;28;94753;-66
2024/01/27 03:47:30;;;;;;;29.08;5.38;;;;;;;;;;5006122;28;92433;-66
2024/01/27 03:49:57;;;;;;;20.65;5.50;;;;;;;;;;4999870;28;93489;-66
2024/01/27 03:52:23;;;;;;;20.33;5.50;;;;;;;;;;5000135;28;92896;-67
2024/01/27 03:54:49;;;;;;;34.72;6.05;;;;;;;;;;4993162;28;95407;-66
2024/01/27 03:57:16;;;;;;;22.15;4.82;;;;;;;;;;4997941;28;93610;-66
2024/01/27 03:59:42;;;;;;;24.48;5.85;;;;;;;;;;5000800;28;92413;-66
2024/01/27 04:02:09;;;;;;;16.20;5.32;;;;;;;;;;5001320;28;93482;-66
2024/01/27 04:04:35;;;;;;;22.27;6.18;;;;;;;;;;4998529;28;93525;-67
2024/01/27 04:07:02;;;;;;;23.92;5.72;;;;;;;;;;5003424;28;92449;-67
2024/01/27 04:09:28;;;;;;;27.52;5.95;;;;;;;;;;4998144;28;95812;-68
2024/01/27 04:11:55;;;;;;;24.40;4.95;;;;;;;;;;4997905;28;92818;-67
2024/01/27 04:14:21;;;;;;;25.48;6.55;;;;;;;;;;5006971;28;93365;-67
2024/01/27 04:16:48;;;;;;;32.80;6.72;;;;;;;;;;4995382;28;94766;-67
2024/01/27 04:19:14;;;;;;;29.35;6.93;;;;;;;;;;4996430;28;92386;-67
2024/01/27 04:21:42;;;;;;;19.13;5.95;;;;;;;;;;5002133;28;93018;-67
2024/01/27 04:24:09;;;;;;;20.70;5.53;;;;;;;;;;5001150;28;93701;-67
2024/01/27 04:26:35;;;;;;;24.38;6.05;;;;;;;;;;5001635;28;91845;-67
2024/01/27 04:29:01;;;;;;;29.50;7.30;;;;;;;;;;5005222;28;92967;-66
2024/01/27 04:31:28;;;;;;;35.13;7.88;;;;;;;;;;5004562;28;92569;-67
2024/01/27 04:33:54;;;;;;;25.98;5.88;;;;;;;;;;5000149;28;94837;-67
2024/01/27 04:36:28;;;;;;;22.75;7.07;;;;;;;;;;5000425;28;93876;-67
2024/01/27 04:38:54;;;;;;;25.65;6.00;;;;;;;;;;4996551;28;92531;-66
2024/01/27 04:41:21;;;;;;;24.50;6.50;;;;;;;;;;4999379;28;92479;-67
2024/01/27 04:43:47;;;;;;;26.80;6.32;;;;;;;;;;4996781;28;93524;-66
2024/01/27 04:46:14;;;;;;;34.88;6.93;;;;;;;;;;5003186;28;92500;-67
2024/01/27 04:48:40;;;;;;;28.23;6.97;;;;;;;;;;5004255;28;93153;-66
2024/01/27 04:51:07;;;;;;;26.60;6.63;;;;;;;;;;5004907;28;92898;-67
2024/01/27 04:53:33;;;;;;;30.02;7.85;;;;;;;;;;5000783;28;92570;-67
2024/01/27 04:55:59;;;;;;;25.30;7.10;;;;;;;;;;4997368;28;93399;-67
2024/01/27 04:58:26;;;;;;;26.15;7.03;;;;;;;;;;5000638;28;96594;-67
2024/01/27 05:00:52;;;;;;;21.20;7.13;;;;;;;;;;4997822;28;95689;-67
2024/01/27 05:03:19;;;;;;;28.02;6.90;;;;;;;;;;5005089;28;93334;-67
2024/01/27 05:05:45;;;;;;;25.90;7.10;;;;;;;;;;4996386;28;92444;-67
2024/01/27 05:08:12;;;;;;;25.13;7.75;;;;;;;;;;4997739;28;93184;-66
2024/01/27 05:10:38;;;;;;;33.83;7.85;;;;;;;;;;5002007;28;94024;-67
2024/01/27 05:13:05;;;;;;;25.67;7.50;;;;;;;;;;4997526;28;92466;-67
2024/01/27 05:15:31;;;;;;;22.25;7.55;;;;;;;;;;4997955;28;91747;-67
2024/01/27 05:17:58;;;;;;;23.05;7.63;;;;;;;;;;4999558;28;92584;-67
2024/01/27 05:20:24;;;;;;;22.48;7.60;;;;;;;;;;4997818;28;92952;-67
2024/01/27 05:22:51;;;;;;;29.55;7.95;;;;;;;;;;4990039;28;95888;-66
2024/01/27 05:25:17;;;;;;;26.90;8.55;;;;;;;;;;4995479;28;92694;-66
2024/01/27 05:27:43;;;;;;;37.58;8.38;;;;;;;;;;4995764;28;93450;-67
2024/01/27 05:30:10;;;;;;;34.22;8.43;;;;;;;;;;5000398;28;93730;-67
2024/01/27 05:32:36;;;;;;;23.27;8.52;;;;;;;;;;5003195;28;93640;-66
2024/01/27 05:35:04;;;;;;;34.35;9.48;;;;;;;;;;5001590;28;93243;-67
2024/01/27 05:37:31;;;;;;;27.42;9.85;;;;;;;;;;4999064;28;92372;-67
2024/01/27 05:39:57;;;;;;;34.15;9.27;;;;;;;;;;5002185;28;93460;-66
2024/01/27 05:42:24;;;;;;;26.95;8.82;;;;;;;;;;4998757;28;93729;-67
2024/01/27 05:44:50;;;;;;;24.90;9.10;;;;;;;;;;4997485;28;93926;-67
2024/01/27 05:47:17;;;;;;;37.90;10.07;;;;;;;;;;5002400;28;94929;-66
2024/01/27 05:49:44;;;;;;;22.73;9.65;;;;;;;;;;5001173;28;93469;-67
2024/01/27 05:52:10;;;;;;;24.23;9.10;;;;;;;;;;4997522;28;92484;-67
2024/01/27 05:54:49;;;;;;;39.80;9.95;;;;;;;;;;5000034;28;94179;-67
2024/01/27 05:57:15;;;;;;;30.42;9.40;;;;;;;;;;4999072;28;92525;-67
2024/01/27 05:59:42;;;;;;;27.52;9.00;;;;;;;;;;4999159;28;93002;-66
2024/01/27 06:02:08;;;;;;;38.03;10.32;;;;;;;;;;4999681;28;93323;-66
2024/01/27 06:04:34;;;;;;;29.50;8.82;;;;;;;;;;5003501;28;91809;-67
2024/01/27 06:07:01;;;;;;;33.47;10.32;;;;;;;;;;5002083;28;92501;-67
2024/01/27 06:09:27;;;;;;;28.80;10.05;;;;;;;;;;5003010;28;93762;-66
2024/01/27 06:11:54;;;;;;;28.23;9.65;;;;;;;;;;5000584;28;94856;-67
2024/01/27 06:14:20;;;;;;;28.58;10.38;;;;;;;;;;5003341;28;94326;-66
2024/01/27 06:16:47;;;;;;;28.75;9.27;;;;;;;;;;5002457;28;93327;-67
2024/01/27 06:19:13;;;;;;;32.55;8.75;;;;;;;;;;4999969;28;93189;-66
2024/01/27 06:21:40;;;;;;;26.48;10.48;;;;;;;;;;5000328;28;93402;-67
2024/01/27 06:24:06;;;;;;;23.77;9.70;;;;;;;;;;5003912;28;92431;-67
2024/01/27 06:26:32;;;;;;;37.47;10.23;;;;;;;;;;5000315;28;93217;-66
2024/01/27 06:29:00;;;;;;;23.33;10.07;;;;;;;;;;5002960;28;92701;-66
2024/01/27 06:31:26;;;;;;;35.00;11.32;;;;;;;;;;5004842;28;92374;-66
2024/01/27 06:33:52;;;;;;;29.48;10.20;;;;;;;;;;5000469;28;93169;-67
2024/01/27 06:36:22;;;;;;;32.22;10.48;;;;;;;;;;5000682;28;95984;-67
2024/01/27 06:38:48;;;;;;;32.10;12.20;;;;;;;;;;5007911;28;92966;-67
2024/01/27 06:41:15;;;;;;;29.90;11.73;;;;;;;;;;5001046;28;93406;-67
2024/01/27 06:43:41;;;;;;;39.30;12.18;;;;;;;;;;5004628;28;92584;-67
2024/01/27 06:46:08;;;;;;;38.95;13.05;;;;;;;;;;5003167;28;94243;-67
2024/01/27 06:48:34;;;;;;;50.15;14.27;;;;;;;;;;5003374;28;92794;-67
2024/01/27 06:51:01;;;;;;;34.78;16.00;;;;;;;;;;5002542;28;92525;-66
2024/01/27 06:53:28;;;;;;;25.20;10.10;;;;;;;;;;5001341;28;93444;-67
2024/01/27 06:55:54;;;;;;;28.67;12.82;;;;;;;;;;5005535;28;92777;-67
2024/01/27 06:58:21;;;;;;;38.15;10.75;;;;;;;;;;4996958;28;92524;-67
2024/01/27 07:00:47;;;;;;;26.10;10.05;;;;;;;;;;4999037;28;95209;-67
2024/01/27 07:03:14;;;;;;;34.78;11.52;;;;;;;;;;4995151;28;92510;-69
2024/01/27 07:05:40;;;;;;;39.08;12.25;;;;;;;;;;5002747;28;93510;-68
2024/01/27 07:08:07;;;;;;;33.13;12.45;;;;;;;;;;5001536;28;93486;-67
2024/01/27 07:10:34;;;;;;;40.25;11.07;;;;;;;;;;5003718;28;92593;-67
2024/01/27 07:13:01;;;;;;;28.42;10.80;;;;;;;;;;5002591;28;94221;-67
2024/01/27 07:15:27;;;;;;;30.05;10.88;;;;;;;;;;5004606;28;94016;-67
2024/01/27 07:17:54;;;;;;;27.35;10.63;;;;;;;;;;5001971;28;91545;-67
2024/01/27 07:20:23;;;;;;;26.77;10.80;;;;;;;;;;4998259;28;92550;-68
2024/01/27 07:22:49;;;;;;;39.03;11.40;;;;;;;;;;5008349;28;93395;-68
2024/01/27 07:25:16;;;;;;;29.00;10.93;;;;;;;;;;5003262;28;94931;-67
2024/01/27 07:27:42;;;;;;;30.60;11.63;;;;;;;;;;5002179;28;93790;-68
2024/01/27 07:30:09;;;;;;;34.00;11.27;;;;;;;;;;5001740;28;92419;-67
2024/01/27 07:32:35;;;;;;;30.13;10.95;;;;;;;;;;5001375;28;93284;-67
2024/01/27 07:35:02;;;;;;;34.38;10.98;;;;;;;;;;5002297;28;93387;-67
2024/01/27 07:37:28;;;;;;;27.52;10.38;;;;;;;;;;4996061;28;92410;-68
2024/01/27 07:39:55;;;;;;;34.45;12.98;;;;;;;;;;4999431;28;93216;-67
2024/01/27 07:42:21;;;;;;;29.33;11.18;;;;;;;;;;4998079;28;93718;-67
2024/01/27 07:44:49;;;;;;;35.60;11.50;;;;;;;;;;5007385;28;92453;-67
2024/01/27 07:47:15;;;;;;;22.75;10.45;;;;;;;;;;5002619;28;93606;-68
2024/01/27 07:49:42;;;;;;;37.92;10.07;;;;;;;;;;5001318;28;94806;-67
2024/01/27 07:52:08;;;;;;;38.38;9.95;;;;;;;;;;5002501;28;95589;-67
2024/01/27 07:54:38;;;;;;;33.80;11.20;;;;;;;;;;5003967;28;94575;-67
2024/01/27 07:57:05;;;;;;;43.63;10.95;;;;;;;;;;5001441;28;93037;-67
2024/01/27 07:59:32;;;;;;;28.45;9.57;;;;;;;;;;4996494;28;93677;-67
2024/01/27 08:01:59;;;;;;;29.60;10.23;;;;;;;;;;5000705;28;93624;-67
2024/01/27 08:04:25;;;;;;;21.70;8.80;;;;;;;;;;5004479;28;92372;-67
2024/01/27 08:06:52;;;;;;;27.55;9.15;;;;;;;;;;4998823;28;92711;-67
2024/01/27 08:09:19;;;;;;;24.08;9.40;;;;;;;;;;5001835;28;92516;-68
2024/01/27 08:11:51;;;;;;;27.40;9.63;;;;;;;;;;5003725;28;93443;-68
2024/01/27 08:14:17;;;;;;;20.88;8.07;;;;;;;;;;4997963;28;95999;-68
2024/01/27 08:16:44;;;;;;;26.60;7.90;;;;;;;;;;4999551;28;92617;-67
2024/01/27 08:19:10;;;;;;;32.05;9.15;;;;;;;;;;5000471;28;94864;-67
2024/01/27 08:21:37;;;;;;;28.88;8.30;;;;;;;;;;5000080;28;93337;-67
2024/01/27 08:24:03;;;;;;;24.83;8.93;;;;;;;;;;5001259;28;92663;-67
2024/01/27 08:26:30;;;;;;;28.13;8.98;;;;;;;;;;4998695;28;93032;-67
2024/01/27 08:28:58;;;;;;;29.00;9.05;;;;;;;;;;5003216;28;92939;-67
2024/01/27 08:31:24;;;;;;;26.58;8.52;;;;;;;;;;5000133;28;93214;-67
2024/01/27 08:33:51;;;;;;;27.02;8.70;;;;;;;;;;5002551;28;93465;-68
2024/01/27 08:36:18;;;;;;;26.27;8.82;;;;;;;;;;4995464;28;95890;-67
2024/01/27 08:38:44;;;;;;;29.20;8.98;;;;;;;;;;5005136;28;95151;-68
2024/01/27 08:41:11;;;;;;;34.80;10.85;;;;;;;;;;5002172;28;93638;-67
2024/01/27 08:43:38;;;;;;;27.75;10.05;;;;;;;;;;5004195;28;92528;-67
2024/01/27 08:46:04;;;;;;;31.05;11.05;;;;;;;;;;4998182;28;93205;-68
2024/01/27 08:48:31;;;;;;;22.73;10.73;;;;;;;;;;5003325;28;93726;-68
2024/01/27 08:50:57;;;;;;;33.95;10.50;;;;;;;;;;5000204;28;93430;-67
2024/01/27 08:53:24;;;;;;;36.20;10.05;;;;;;;;;;4995490;28;92604;-68
2024/01/27 08:55:50;;;;;;;22.77;9.40;;;;;;;;;;4996229;28;91828;-67
2024/01/27 08:58:16;;;;;;;24.60;9.38;;;;;;;;;;5003147;28;92679;-68
2024/01/27 09:00:43;;;;;;;32.70;9.88;;;;;;;;;;5003019;28;93395;-67
2024/01/27 09:03:09;;;;;;;31.00;9.35;;;;;;;;;;4997550;28;94973;-67
2024/01/27 09:05:36;;;;;;;23.38;8.80;;;;;;;;;;5004218;28;95529;-72
2024/01/27 09:08:03;;;;;;;22.15;8.27;;;;;;;;;;4999458;28;93465;-73
2024/01/27 09:10:29;;;;;;;28.33;8.45;;;;;;;;;;5006513;28;92848;-73
2024/01/27 09:12:55;;;;;;;38.35;8.20;;;;;;;;;;4996288;28;93572;-74
2024/01/27 09:15:22;;;;;;;19.75;7.00;;;;;;;;;;4996167;28;92926;-73
2024/01/27 09:17:48;;;;;;;16.90;6.95;;;;;;;;;;4995233;28;93242;-74
2024/01/27 09:20:15;;;;;;;26.38;6.80;;;;;;;;;;4998390;28;92830;-73
2024/01/27 09:22:41;;;;;;;26.08;7.78;;;;;;;;;;4998980;28;93144;-73
2024/01/27 09:25:08;;;;;;;21.38;7.25;;;;;;;;;;5000787;28;94992;-73
2024/01/27 09:27:34;;;;;;;23.83;8.00;;;;;;;;;;4996526;28;95817;-73
2024/01/27 09:30:01;;;;;;;26.50;9.40;;;;;;;;;;5004076;28;92636;-72
2024/01/27 09:32:27;;;;;;;19.23;7.85;;;;;;;;;;5006741;28;94319;-73
2024/01/27 09:34:54;;;;;;;20.05;7.45;;;;;;;;;;5000983;28;92541;-73
2024/01/27 09:37:20;;;;;;;18.73;6.60;;;;;;;;;;5003731;28;93189;-73
2024/01/27 09:39:47;;;;;;;21.08;6.88;;;;;;;;;;5005010;28;93775;-74
2024/01/27 09:42:15;;;;;;;19.27;6.97;;;;;;;;;;5003771;28;92515;-73
2024/01/27 09:44:43;;;;;;;22.83;7.60;;;;;;;;;;5002481;28;93852;-73
2024/01/27 09:47:10;;;;;;;19.42;6.55;;;;;;;;;;4999885;28;95463;-72
2024/01/27 09:49:37;;;;;;;18.17;6.38;;;;;;;;;;5002376;28;93004;-75
2024/01/27 09:52:04;;;;;;;17.85;6.43;;;;;;;;;;5000169;28;94921;-74
2024/01/27 09:54:30;;;;;;;21.90;7.28;;;;;;;;;;4999110;28;93852;-73
2024/01/27 09:56:57;;;;;;;22.33;7.03;;;;;;;;;;5002081;28;93466;-73
2024/01/27 09:59:27;;;;;;;20.30;6.65;;;;;;;;;;5003880;28;95015;-74
2024/01/27 10:01:53;;;;;;;22.48;11.10;;;;;;;;;;4999626;28;92540;-73
2024/01/27 10:04:21;;;;;;;21.05;7.20;;;;;;;;;;4999199;28;92602;-74
2024/01/27 10:06:50;;;;;;;25.70;7.60;;;;;;;;;;5004319;28;93608;-73
2024/01/27 10:09:17;;;;;;;24.88;7.43;;;;;;;;;;5001633;28;91846;-74
2024/01/27 10:11:45;;;;;;;24.20;7.75;;;;;;;;;;5002939;28;92506;-73
2024/01/27 10:14:12;;;;;;;22.83;7.78;;;;;;;;;;5007757;28;93760;-73
2024/01/27 10:16:42;;;;;;;21.00;6.70;;;;;;;;;;5005728;28;95304;-73
2024/01/27 10:19:12;;;;;;;15.90;5.80;;;;;;;;;;5004420;28;94020;-74
2024/01/27 10:21:38;;;;;;;24.17;7.10;;;;;;;;;;5006119;28;92730;-73
2024/01/27 10:24:06;;;;;;;19.17;6.18;;;;;;;;;;5002891;28;93221;-73
2024/01/27 10:26:33;;;;;;;23.80;6.95;;;;;;;;;;5003735;28;93648;-74
2024/01/27 10:29:00;;;;;;;18.17;6.63;;;;;;;;;;5006861;28;92589;-72
2024/01/27 10:31:27;;;;;;;24.10;6.80;;;;;;;;;;5003409;28;95862;-74
2024/01/27 10:33:54;;;;;;;19.90;6.63;;;;;;;;;;5005249;28;92740;-74
2024/01/27 10:36:21;;;;;;;20.00;6.40;;;;;;;;;;5006883;28;92459;-72
2024/01/27 10:38:47;;;;;;;22.70;5.90;;;;;;;;;;5004404;28;93429;-72
2024/01/27 10:41:20;;;;;;;20.92;6.63;;;;;;;;;;5001521;28;95033;-71
2024/01/27 10:43:49;;;;;;;17.25;6.35;;;;;;;;;;5002436;28;95521;-72
2024/01/27 10:46:17;;;;;;;23.80;6.32;;;;;;;;;;5001259;28;93390;-72
2024/01/27 10:48:46;;;;;;;13.70;5.20;;;;;;;;;;5003229;28;92598;-72
2024/01/27 10:51:16;;;;;;;16.90;6.37;;;;;;;;;;5005958;28;93226;-72
2024/01/27 10:53:44;;;;;;;16.05;5.85;;;;;;;;;;5004236;28;93355;-72
2024/01/27 10:56:11;;;;;;;17.08;5.88;;;;;;;;;;5003540;28;92615;-74
2024/01/27 10:58:41;;;;;;;14.93;5.65;;;;;;;;;;5009409;28;93650;-72
2024/01/27 11:01:09;;;;;;;15.93;5.53;;;;;;;;;;5002343;28;92442;-72
2024/01/27 11:03:38;;;;;;;14.60;5.20;;;;;;;;;;5002613;28;93218;-72
2024/01/27 11:06:05;;;;;;;17.52;5.43;;;;;;;;;;4993840;28;96003;-72
2024/01/27 11:08:33;;;;;;;19.48;5.97;;;;;;;;;;5002558;28;92546;-72
2024/01/27 11:10:59;;;;;;;20.17;6.00;;;;;;;;;;4999229;28;93204;-72
2024/01/27 11:13:27;;;;;;;15.07;5.28;;;;;;;;;;5004140;28;93609;-72
2024/01/27 11:15:54;;;;;;;14.43;5.38;;;;;;;;;;5002170;28;92499;-72
2024/01/27 11:18:20;;;;;;;16.75;5.60;;;;;;;;;;5005079;28;93322;-72
2024/01/27 11:20:47;;;;;;;17.38;5.78;;;;;;;;;;5007116;28;94509;-72
2024/01/27 11:23:14;;;;;;;19.17;6.65;;;;;;;;;;5001919;28;93559;-72
2024/01/27 11:25:41;;;;;;;23.02;6.90;;;;;;;;;;5003444;28;93815;-69
2024/01/27 11:28:11;;;;;;;13.65;6.20;;;;;;;;;;5005013;28;92465;-69
2024/01/27 11:30:39;;;;;;;17.60;5.47;;;;;;;;;;5004908;28;94918;-69
2024/01/27 11:33:08;;;;;;;18.23;5.80;;;;;;;;;;5001066;28;93320;-69
2024/01/27 11:35:34;;;;;;;21.20;6.22;;;;;;;;;;5005156;28;92462;-69
2024/01/27 11:38:01;;;;;;;14.00;5.28;;;;;;;;;;4998670;28;93397;-69
2024/01/27 11:40:28;;;;;;;15.75;5.00;;;;;;;;;;5005338;28;93451;-69
2024/01/27 11:42:58;;;;;;;15.27;4.97;;;;;;;;;;5008648;28;95873;-69
2024/01/27 11:45:25;;;;;;;;;;;;;;;;;;5002636;28;96728;-69
2024/01/27 11:47:51;;;;;;;16.40;6.03;;;;;;;;;;5005715;28;118419;-69
2024/01/27 11:50:18;;;;;;;18.65;6.18;;;;;;;;;;5001754;28;92425;-69
2024/01/27 11:52:44;;;;;;;15.90;4.78;;;;;;;;;;5003096;28;93284;-69
2024/01/27 11:55:11;;;;;;;15.68;6.03;;;;;;;;;;5003538;28;94889;-68
2024/01/27 11:57:37;;;;;;;17.52;5.72;;;;;;;;;;5005008;28;95865;-69
2024/01/27 12:00:04;;;;;;;17.20;4.90;;;;;;;;;;5000258;28;93511;-69
2024/01/27 12:02:30;;;;;;;17.58;5.00;;;;;;;;;;4998116;28;92919;-69
2024/01/27 12:04:57;;;;;;;16.48;4.60;;;;;;;;;;4999002;28;93151;-69
2024/01/27 12:07:23;;;;;;;20.00;5.80;;;;;;;;;;4999586;28;92489;-69
2024/01/27 12:09:50;;;;;;;17.70;6.00;;;;;;;;;;5000597;28;93550;-69
2024/01/27 12:12:17;;;;;;;20.15;5.00;;;;;;;;;;5004047;28;92346;-68
2024/01/27 12:14:51;;;;;;;18.90;5.25;;;;;;;;;;5003634;28;92535;-69
2024/01/27 12:17:18;;;;;;;16.92;5.38;;;;;;;;;;5001321;28;93961;-68
2024/01/27 12:19:47;;;;;;;18.60;4.93;;;;;;;;;;5000419;28;95872;-68
2024/01/27 12:22:25;;;;;;;14.65;5.18;;;;;;;;;;4999077;28;92500;-68
2024/01/27 12:24:53;;;;;;;25.55;6.18;;;;;;;;;;4999320;28;93142;-69
2024/01/27 12:27:19;;;;;;;19.25;5.57;;;;;;;;;;5002458;28;92450;-68
2024/01/27 12:29:47;;;;;;;17.92;6.10;;;;;;;;;;4997479;28;93209;-68
2024/01/27 12:32:14;;;;;;;18.48;5.15;;;;;;;;;;4997454;28;95528;-68
2024/01/27 12:34:40;;;;;;;18.35;5.40;;;;;;;;;;4999528;28;92854;-68
2024/01/27 12:37:08;;;;;;;17.10;5.20;;;;;;;;;;5008146;28;93419;-68
2024/01/27 12:39:34;;;;;;;17.95;5.05;;;;;;;;;;4994695;28;93340;-68
2024/01/27 12:42:01;;;;;;;15.25;4.68;;;;;;;;;;4999200;28;92619;-67
2024/01/27 12:44:27;;;;;;;13.90;4.72;;;;;;;;;;4989867;28;95248;-68
2024/01/27 12:46:54;;;;;;;18.77;5.40;;;;;;;;;;5001561;28;93606;-68
2024/01/27 12:49:20;;;;;;;16.08;4.68;;;;;;;;;;5000980;28;93145;-68
2024/01/27 12:51:48;;;;;;;20.98;5.70;;;;;;;;;;4996863;28;93554;-67
2024/01/27 12:54:16;;;;;;;22.08;6.05;;;;;;;;;;5000300;28;92882;-68
2024/01/27 12:56:42;;;;;;;18.13;4.60;;;;;;;;;;5002319;28;93150;-68
2024/01/27 12:59:09;;;;;;;24.08;5.28;;;;;;;;;;5005288;28;93788;-68
2024/01/27 13:01:35;;;;;;;17.50;4.57;;;;;;;;;;4995318;28;91745;-67
2024/01/27 13:04:02;;;;;;;15.48;4.80;;;;;;;;;;4996829;28;92447;-68
2024/01/27 13:06:28;;;;;;;22.02;5.88;;;;;;;;;;4995085;28;93249;-68
2024/01/27 13:08:55;;;;;;;21.70;5.38;;;;;;;;;;5007857;28;95203;-67
2024/01/27 13:11:24;;;;;;;17.45;5.50;;;;;;;;;;5001901;28;93907;-68
2024/01/27 13:13:51;;;;;;;17.08;5.00;;;;;;;;;;5004745;28;92692;-70
2024/01/27 13:16:18;;;;;;;24.13;4.93;;;;;;;;;;5008134;28;96219;-71
2024/01/27 13:18:46;;;;;;;15.25;4.78;;;;;;;;;;5002700;28;95353;-68
2024/01/27 13:21:12;;;;;;;22.48;5.55;;;;;;;;;;5005698;28;92533;-69
2024/01/27 13:23:39;;;;;;;19.45;5.72;;;;;;;;;;4999015;28;93306;-70
2024/01/27 13:26:05;;;;;;;21.25;6.03;;;;;;;;;;5000827;28;92791;-69
2024/01/27 13:28:44;;;;;;;28.17;5.85;;;;;;;;;;5001570;28;92486;-69
2024/01/27 13:31:10;;;;;;;23.38;5.03;;;;;;;;;;5005826;28;93199;-69
2024/01/27 13:33:36;;;;;;;22.55;6.25;;;;;;;;;;5002667;28;94934;-69
2024/01/27 13:36:03;;;;;;;22.67;7.15;;;;;;;;;;5008219;28;95562;-69
2024/01/27 13:38:30;;;;;;;29.45;5.03;;;;;;;;;;5002884;28;93211;-68
2024/01/27 13:40:56;;;;;;;23.75;5.65;;;;;;;;;;5001733;28;92685;-71
2024/01/27 13:43:22;;;;;;;26.23;6.00;;;;;;;;;;5000777;28;93138;-70
2024/01/27 13:45:51;;;;;;;21.58;5.57;;;;;;;;;;5005016;28;93401;-73
2024/01/27 13:48:17;;;;;;;15.70;5.30;;;;;;;;;;5001471;28;92553;-73
2024/01/27 13:50:45;;;;;;;21.90;6.28;;;;;;;;;;5003922;28;93507;-74
2024/01/27 13:53:11;;;;;;;21.42;5.93;;;;;;;;;;5007895;28;93391;-73
2024/01/27 13:55:40;;;;;;;21.70;5.90;;;;;;;;;;5007191;28;93255;-74
2024/01/27 13:58:06;;;;;;;19.45;5.45;;;;;;;;;;4996226;28;95842;-73
2024/01/27 14:00:34;;;;;;;16.42;5.30;;;;;;;;;;5000567;28;92773;-73
2024/01/27 14:03:01;;;;;;;24.25;5.70;;;;;;;;;;5001247;28;93167;-74
2024/01/27 14:05:27;;;;;;;29.23;6.35;;;;;;;;;;5002758;28;93469;-73
2024/01/27 14:07:54;;;;;;;20.58;5.50;;;;;;;;;;5001945;28;92795;-73
2024/01/27 14:10:20;;;;;;;29.67;5.57;;;;;;;;;;5001848;28;93569;-73
2024/01/27 14:12:47;;;;;;;29.02;5.32;;;;;;;;;;5004492;28;93865;-74
2024/01/27 14:15:14;;;;;;;17.67;5.05;;;;;;;;;;5004978;28;91746;-73
2024/01/27 14:17:40;;;;;;;17.25;5.65;;;;;;;;;;4999601;28;96102;-73
2024/01/27 14:20:09;;;;;;;30.67;5.93;;;;;;;;;;5028208;27;92527;-73
2024/01/27 14:22:36;;;;;;;20.48;5.18;;;;;;;;;;5002253;28;95225;-73
2024/01/27 14:25:02;;;;;;;20.17;5.55;;;;;;;;;;5003772;28;94095;-73